KSUN/SUN METAR and TAF weather

Enter ICAO airport designator
Station Type Date Time Source
KSUN METAR 2022/08/13 12:15 UTC NOAA

KSUN 131215Z AUTO 31007KT 10SM SCT090 15/09 A3022 RMK AO2


Station Type Date Time Source
KSUN Decoded METAR 2022/08/13 12:15 UTC NOAA

Hailey, Friedman Memorial Airport, ID, United States (KSUN) 43-30N 114-18W
Aug 13, 2022 - 08:15 AM EDT / 2022.08.13 1215 UTC
Wind: from the NW (310 degrees) at 8 MPH (7 KT):0
Visibility: 10 mile(s):0
Sky conditions: partly cloudy
Temperature: 59 F (15 C)
Dew Point: 48 F (9 C)
Relative Humidity: 67%
Pressure (altimeter): 30.22 in. Hg (1023 hPa)
ob: KSUN 131215Z AUTO 31007KT 10SM SCT090 15/09 A3022 RMK AO2
cycle: 12

Station Type Date Time Source
KSUN TAF 2022/08/13 12:24 UTC NOAA

TAF KSUN 131123Z 1312/1418 30007KT P6SM VCSH SCT080 BKN120
FM131900 13006KT P6SM VCTS SCT080CB BKN110
FM140200 30006KT P6SM SCT100
AMD LTD TO CLD VIS AND WIND TIL 131400

Example: see airport list